Terminal Aerodrome Forecast
Issued by NWS

Home | Current Version | Previous Version | Text Only | Print | Product List | Glossary On
Versions: 1 2 3 4 5 6 7 8 9 10 11 12 13 14 15 16 17 18
000
FTUS45 KFGZ 211902 AAA
TAFGCN
TAF AMD
KGCN 211902Z 2119/2218 VRB06KT P6SM SCT070 OVC100
      TEMPO 2119/2123 VRB10G20KT 5SM TSRA BKN050CB
     FM212300 VRB05KT P6SM BKN060 BKN080
      TEMPO 2123/2203 -TSRA BKN045CB=

USA.gov is the U.S. government's official web portal to all federal, state and local government web resources and services.